Terminal Aerodrome Forecast
Issued by NWS

Home | Current Version | Previous Version | Text Only | Print | Product List | Glossary On
Versions: 1 2 3 4 5 6 7 8 9 10 11 12 13 14 15 16 17 18 19 20 21 22 23 24 25 26 27 28
000
FTUS44 KHGX 302320
TAFIAH
TAF
KIAH 302320Z 3100/0106 15008KT P6SM FEW060 SCT250
     FM310130 15004KT P6SM SKC
     FM311100 VRB03KT P6SM FEW025
     FM311600 21006KT P6SM SCT040
     FM312200 16008KT P6SM VCTS SCT050CB
     FM010100 17007KT P6SM FEW090 SCT250=

USA.gov is the U.S. government's official web portal to all federal, state and local government web resources and services.